Mars Hill, Indiana
Current Conditions -  °F | °C
As of 6:54 AM on Wednesday 26 Nov 2014 (Local Time) from KIND Reporting Station
Overcast Overcast  
Wind Chill: 19°   Ceiling: 1500
Heat Index: 26°   Visibility: 10mi
Dew Point: 20°   Wind: 6mph
Humidity: 78%   Direction: 50°NE
Pressure: 30.12"   Gusts: NA
Location:  39.7251°N, 86.264°W
Report Text: KIND 261154Z 05005KT 10SM OVC015 M03/M07 A3012 RMK AO2 SLP210 T10331067 11028 21033 56007
Loading
Personal Weather Stations






























Interactive Weather Map New forecast layout! Learn more

10-Day Weather Forecast

Advertisements
Track Severe Weather on mobile